METAR Data
IDs: Format: Raw Decoded Include TAF

Data at: 1249 UTC 07 Oct 2022

RKSM 071200Z 33003KT 9999 SCT050 14/06 A3021